sensor_id;sensor_type;location;lat;lon;timestamp;pressure;altitude;pressure_sealevel;temperature;humidity
68654;BME280;55636;51.108;13.622;2023-08-24T00:00:18;100623.00;;;19.75;50.02
68654;BME280;55636;51.108;13.622;2023-08-24T00:01:21;100619.38;;;19.74;50.07
68654;BME280;55636;51.108;13.622;2023-08-24T00:02:24;100621.31;;;19.74;50.17
68654;BME280;55636;51.108;13.622;2023-08-24T00:03:27;100621.31;;;19.74;50.12
68654;BME280;55636;51.108;13.622;2023-08-24T00:04:29;100626.13;;;19.73;50.05
68654;BME280;55636;51.108;13.622;2023-08-24T00:05:35;100621.97;;;19.71;50.17
68654;BME280;55636;51.108;13.622;2023-08-24T00:06:39;100630.06;;;19.72;50.23
68654;BME280;55636;51.108;13.622;2023-08-24T00:07:41;100621.13;;;19.70;50.44
68654;BME280;55636;51.108;13.622;2023-08-24T00:08:44;100621.97;;;19.71;50.00
68654;BME280;55636;51.108;13.622;2023-08-24T00:09:47;100628.72;;;19.70;50.12
68654;BME280;55636;51.108;13.622;2023-08-24T00:10:49;100629.84;;;19.69;50.19
68654;BME280;55636;51.108;13.622;2023-08-24T00:11:52;100629.03;;;19.68;50.40
68654;BME280;55636;51.108;13.622;2023-08-24T00:12:55;100626.22;;;19.68;50.27
68654;BME280;55636;51.108;13.622;2023-08-24T00:13:57;100628.19;;;19.68;50.49
68654;BME280;55636;51.108;13.622;2023-08-24T00:15:00;100628.19;;;19.68;50.41
68654;BME280;55636;51.108;13.622;2023-08-24T00:16:02;100627.38;;;19.67;50.17
68654;BME280;55636;51.108;13.622;2023-08-24T00:17:05;100623.75;;;19.67;50.29
68654;BME280;55636;51.108;13.622;2023-08-24T00:18:07;100634.97;;;19.67;50.56
68654;BME280;55636;51.108;13.622;2023-08-24T00:19:09;100629.34;;;19.67;50.24
68654;BME280;55636;51.108;13.622;2023-08-24T00:20:12;100634.13;;;19.66;50.09
68654;BME280;55636;51.108;13.622;2023-08-24T00:21:16;100630.50;;;19.66;50.11
68654;BME280;55636;51.108;13.622;2023-08-24T00:22:25;100625.22;;;19.64;50.37
68654;BME280;55636;51.108;13.622;2023-08-24T00:23:27;100631.97;;;19.63;50.59
68654;BME280;55636;51.108;13.622;2023-08-24T00:24:30;100621.88;;;19.62;50.34
68654;BME280;55636;51.108;13.622;2023-08-24T00:25:32;100627.50;;;19.62;50.25
68654;BME280;55636;51.108;13.622;2023-08-24T00:26:35;100629.47;;;19.62;50.25
68654;BME280;55636;51.108;13.622;2023-08-24T00:27:37;100625.81;;;19.61;50.49
68654;BME280;55636;51.108;13.622;2023-08-24T00:28:40;100621.34;;;19.60;50.50
68654;BME280;55636;51.108;13.622;2023-08-24T00:29:42;100626.16;;;19.59;50.63
68654;BME280;55636;51.108;13.622;2023-08-24T00:30:45;100623.66;;;19.58;50.65
68654;BME280;55636;51.108;13.622;2023-08-24T00:31:48;100613.28;;;19.58;50.68
68654;BME280;55636;51.108;13.622;2023-08-24T00:32:50;100620.00;;;19.57;50.60
68654;BME280;55636;51.108;13.622;2023-08-24T00:33:53;100620.88;;;19.58;50.78
68654;BME280;55636;51.108;13.622;2023-08-24T00:34:55;100618.38;;;19.56;50.51
68654;BME280;55636;51.108;13.622;2023-08-24T00:36:01;100626.47;;;19.58;50.72
68654;BME280;55636;51.108;13.622;2023-08-24T00:37:04;100618.38;;;19.56;50.88
68654;BME280;55636;51.108;13.622;2023-08-24T00:38:06;100620.34;;;19.56;50.94
68654;BME280;55636;51.108;13.622;2023-08-24T00:39:09;100623.13;;;19.56;51.04
68654;BME280;55636;51.108;13.622;2023-08-24T00:40:12;100631.53;;;19.56;50.86
68654;BME280;55636;51.108;13.622;2023-08-24T00:41:15;100624.28;;;19.55;50.87
68654;BME280;55636;51.108;13.622;2023-08-24T00:42:17;100622.31;;;19.55;51.15
68654;BME280;55636;51.108;13.622;2023-08-24T00:43:20;100618.19;;;19.53;50.87
68654;BME280;55636;51.108;13.622;2023-08-24T00:44:26;100624.59;;;19.53;51.07
68654;BME280;55636;51.108;13.622;2023-08-24T00:45:30;100626.59;;;19.53;51.08
68654;BME280;55636;51.108;13.622;2023-08-24T00:46:34;100621.31;;;19.51;50.91
68654;BME280;55636;51.108;13.622;2023-08-24T00:47:41;100622.13;;;19.52;51.05
68654;BME280;55636;51.108;13.622;2023-08-24T00:48:45;100616.03;;;19.50;50.83
68654;BME280;55636;51.108;13.622;2023-08-24T00:49:48;100621.63;;;19.50;51.08
68654;BME280;55636;51.108;13.622;2023-08-24T00:50:52;100617.16;;;19.49;51.07
68654;BME280;55636;51.108;13.622;2023-08-24T00:51:55;100621.09;;;19.48;50.85
68654;BME280;55636;51.108;13.622;2023-08-24T00:52:58;100621.41;;;19.46;51.11
68654;BME280;55636;51.108;13.622;2023-08-24T00:54:00;100620.06;;;19.43;50.89
68654;BME280;55636;51.108;13.622;2023-08-24T00:55:04;100620.06;;;19.43;51.07
68654;BME280;55636;51.108;13.622;2023-08-24T00:56:07;100621.22;;;19.42;51.20
68654;BME280;55636;51.108;13.622;2023-08-24T00:57:10;100623.47;;;19.40;51.23
68654;BME280;55636;51.108;13.622;2023-08-24T00:58:13;100620.69;;;19.40;51.21
68654;BME280;55636;51.108;13.622;2023-08-24T00:59:16;100619.06;;;19.39;51.35
68654;BME280;55636;51.108;13.622;2023-08-24T01:00:19;100619.66;;;19.36;51.52
68654;BME280;55636;51.108;13.622;2023-08-24T01:01:22;100630.88;;;19.36;51.74
68654;BME280;55636;51.108;13.622;2023-08-24T01:02:24;100625.59;;;19.35;51.64
68654;BME280;55636;51.108;13.622;2023-08-24T01:03:27;100623.09;;;19.33;51.65
68654;BME280;55636;51.108;13.622;2023-08-24T01:04:30;100618.63;;;19.32;51.65
68654;BME280;55636;51.108;13.622;2023-08-24T01:05:33;100622.56;;;19.31;52.34
68654;BME280;55636;51.108;13.622;2023-08-24T01:06:35;100624.03;;;19.29;52.87
68654;BME280;55636;51.108;13.622;2023-08-24T01:07:39;100626.31;;;19.26;52.89
68654;BME280;55636;51.108;13.622;2023-08-24T01:08:43;100621.03;;;19.25;52.73
68654;BME280;55636;51.108;13.622;2023-08-24T01:09:46;100632.03;;;19.21;53.02
68654;BME280;55636;51.108;13.622;2023-08-24T01:14:04;100619.56;;;19.14;53.43
68654;BME280;55636;51.108;13.622;2023-08-24T01:15:15;100617.09;;;19.12;53.90
68654;BME280;55636;51.108;13.622;2023-08-24T01:16:23;100619.34;;;19.10;54.09
68654;BME280;55636;51.108;13.622;2023-08-24T01:17:31;100621.63;;;19.08;54.34
68654;BME280;55636;51.108;13.622;2023-08-24T01:18:35;100617.19;;;19.07;54.46
68654;BME280;55636;51.108;13.622;2023-08-24T01:19:42;100614.72;;;19.05;54.37
68654;BME280;55636;51.108;13.622;2023-08-24T01:20:47;100616.16;;;19.03;54.23
68654;BME280;55636;51.108;13.622;2023-08-24T01:21:51;100615.63;;;19.01;53.79
68654;BME280;55636;51.108;13.622;2023-08-24T01:24:18;100616.28;;;18.98;53.64
68654;BME280;55636;51.108;13.622;2023-08-24T01:25:53;100613.75;;;18.96;53.20
68654;BME280;55636;51.108;13.622;2023-08-24T01:26:56;100612.94;;;18.96;53.37
68654;BME280;55636;51.108;13.622;2023-08-24T01:28:00;100612.94;;;18.96;53.37
68654;BME280;55636;51.108;13.622;2023-08-24T01:29:04;100617.41;;;18.97;53.54
68654;BME280;55636;51.108;13.622;2023-08-24T01:30:08;100617.72;;;18.95;53.59
68654;BME280;55636;51.108;13.622;2023-08-24T01:31:13;100611.59;;;18.93;53.54
68654;BME280;55636;51.108;13.622;2023-08-24T01:32:17;100609.09;;;18.91;53.47
68654;BME280;55636;51.108;13.622;2023-08-24T01:33:21;100608.25;;;18.91;53.05
68654;BME280;55636;51.108;13.622;2023-08-24T01:34:23;100603.81;;;18.90;53.24
68654;BME280;55636;51.108;13.622;2023-08-24T01:35:26;100607.75;;;18.89;53.44
68654;BME280;55636;51.108;13.622;2023-08-24T01:36:28;100610.88;;;18.87;53.55
68654;BME280;55636;51.108;13.622;2023-08-24T01:37:32;100605.56;;;18.86;53.47
68654;BME280;55636;51.108;13.622;2023-08-24T01:38:34;100605.88;;;18.84;53.56
68654;BME280;55636;51.108;13.622;2023-08-24T01:39:42;100606.19;;;18.83;53.67
68654;BME280;55636;51.108;13.622;2023-08-24T01:40:59;100597.31;;;18.81;53.29
68654;BME280;55636;51.108;13.622;2023-08-24T01:42:05;100597.91;;;18.77;53.33
68654;BME280;55636;51.108;13.622;2023-08-24T01:43:09;100601.00;;;18.76;53.73
68654;BME280;55636;51.108;13.622;2023-08-24T01:44:13;100601.34;;;18.74;53.36
68654;BME280;55636;51.108;13.622;2023-08-24T01:45:17;100604.72;;;18.71;53.48
68654;BME280;55636;51.108;13.622;2023-08-24T01:46:22;100603.91;;;18.71;53.89
68654;BME280;55636;51.108;13.622;2023-08-24T01:47:25;100605.38;;;18.68;53.88
68654;BME280;55636;51.108;13.622;2023-08-24T01:48:30;100608.78;;;18.65;53.85
68654;BME280;55636;51.108;13.622;2023-08-24T01:49:34;100610.25;;;18.63;54.07
68654;BME280;55636;51.108;13.622;2023-08-24T01:50:37;100614.16;;;18.61;54.08
68654;BME280;55636;51.108;13.622;2023-08-24T01:51:40;100608.88;;;18.60;54.00
68654;BME280;55636;51.108;13.622;2023-08-24T01:52:44;100605.56;;;18.58;54.01
68654;BME280;55636;51.108;13.622;2023-08-24T01:53:47;100613.13;;;18.57;53.95
68654;BME280;55636;51.108;13.622;2023-08-24T01:55:52;100614.34;;;18.51;54.29
68654;BME280;55636;51.108;13.622;2023-08-24T01:56:55;100607.09;;;18.50;54.36
68654;BME280;55636;51.108;13.622;2023-08-24T01:57:58;100606.59;;;18.48;54.08
68654;BME280;55636;51.108;13.622;2023-08-24T01:59:00;100615.00;;;18.48;54.58
68654;BME280;55636;51.108;13.622;2023-08-24T02:00:04;100610.53;;;18.47;54.29
68654;BME280;55636;51.108;13.622;2023-08-24T02:01:14;100619.22;;;18.46;54.60
68654;BME280;55636;51.108;13.622;2023-08-24T02:02:18;100611.97;;;18.44;54.42
68654;BME280;55636;51.108;13.622;2023-08-24T02:03:20;100611.66;;;18.46;54.51
68654;BME280;55636;51.108;13.622;2023-08-24T02:04:23;100606.38;;;18.44;54.48
68654;BME280;55636;51.108;13.622;2023-08-24T02:05:25;100613.91;;;18.44;54.80
68654;BME280;55636;51.108;13.622;2023-08-24T02:06:30;100608.63;;;18.42;54.77
68654;BME280;55636;51.108;13.622;2023-08-24T02:07:32;100600.56;;;18.41;55.02
68654;BME280;55636;51.108;13.622;2023-08-24T02:08:35;100600.03;;;18.39;54.68
68654;BME280;55636;51.108;13.622;2023-08-24T02:09:37;100600.03;;;18.39;54.97
68654;BME280;55636;51.108;13.622;2023-08-24T02:10:40;100603.13;;;18.37;54.93
68654;BME280;55636;51.108;13.622;2023-08-24T02:11:42;100602.63;;;18.35;54.96
68654;BME280;55636;51.108;13.622;2023-08-24T02:12:45;100606.56;;;18.34;54.87
68654;BME280;55636;51.108;13.622;2023-08-24T02:13:47;100603.19;;;18.32;54.91
68654;BME280;55636;51.108;13.622;2023-08-24T02:14:49;100604.34;;;18.31;54.75
68654;BME280;55636;51.108;13.622;2023-08-24T02:16:04;100601.03;;;18.29;54.75
68654;BME280;55636;51.108;13.622;2023-08-24T02:17:07;100601.03;;;18.29;55.16
68654;BME280;55636;51.108;13.622;2023-08-24T02:18:09;100602.16;;;18.28;54.97
68654;BME280;55636;51.108;13.622;2023-08-24T02:19:12;100603.28;;;18.27;55.08
68654;BME280;55636;51.108;13.622;2023-08-24T02:20:14;100605.25;;;18.26;54.93
68654;BME280;55636;51.108;13.622;2023-08-24T02:21:17;100604.44;;;18.26;55.41
68654;BME280;55636;51.108;13.622;2023-08-24T02:22:19;100591.91;;;18.23;55.25
68654;BME280;55636;51.108;13.622;2023-08-24T02:23:21;100604.22;;;18.22;55.42
68654;BME280;55636;51.108;13.622;2023-08-24T02:24:24;100601.44;;;18.22;55.21
68654;BME280;55636;51.108;13.622;2023-08-24T02:25:26;100602.56;;;18.21;55.39
68654;BME280;55636;51.108;13.622;2023-08-24T02:26:29;100598.09;;;18.20;55.56
68654;BME280;55636;51.108;13.622;2023-08-24T02:27:32;100595.63;;;18.19;55.25
68654;BME280;55636;51.108;13.622;2023-08-24T02:28:36;100592.00;;;18.18;55.21
68654;BME280;55636;51.108;13.622;2023-08-24T02:29:39;100585.88;;;18.16;55.50
68654;BME280;55636;51.108;13.622;2023-08-24T02:30:41;100590.66;;;18.16;55.26
68654;BME280;55636;51.108;13.622;2023-08-24T02:31:44;100599.03;;;18.16;55.39
68654;BME280;55636;51.108;13.622;2023-08-24T02:32:49;100592.91;;;18.14;55.58
68654;BME280;55636;51.108;13.622;2023-08-24T02:33:54;100596.84;;;18.12;55.55
68654;BME280;55636;51.108;13.622;2023-08-24T02:34:57;100595.19;;;18.11;55.54
68654;BME280;55636;51.108;13.622;2023-08-24T02:35:59;100587.94;;;18.10;55.43
68654;BME280;55636;51.108;13.622;2023-08-24T02:37:02;100585.16;;;18.10;55.58
68654;BME280;55636;51.108;13.622;2023-08-24T02:38:04;100591.88;;;18.09;55.60
68654;BME280;55636;51.108;13.622;2023-08-24T02:39:08;100590.19;;;18.08;55.70
68654;BME280;55636;51.108;13.622;2023-08-24T02:40:11;100586.91;;;18.06;55.87
68654;BME280;55636;51.108;13.622;2023-08-24T02:41:13;100588.84;;;18.06;55.83
68654;BME280;55636;51.108;13.622;2023-08-24T02:42:16;100596.41;;;18.05;55.91
68654;BME280;55636;51.108;13.622;2023-08-24T02:43:19;100589.97;;;18.05;56.07
68654;BME280;55636;51.108;13.622;2023-08-24T02:44:21;100595.88;;;18.03;55.91
68654;BME280;55636;51.108;13.622;2023-08-24T02:45:23;100593.09;;;18.03;55.85
68654;BME280;55636;51.108;13.622;2023-08-24T02:46:27;100598.16;;;18.01;56.17
68654;BME280;55636;51.108;13.622;2023-08-24T02:47:30;100590.91;;;18.00;55.89
68654;BME280;55636;51.108;13.622;2023-08-24T02:48:33;100597.63;;;17.99;56.24
68654;BME280;55636;51.108;13.622;2023-08-24T02:49:36;100589.56;;;17.98;55.92
68654;BME280;55636;51.108;13.622;2023-08-24T02:50:39;100594.59;;;17.95;56.07
68654;BME280;55636;51.108;13.622;2023-08-24T02:51:41;100591.81;;;17.95;56.32
68654;BME280;55636;51.108;13.622;2023-08-24T02:52:43;100589.31;;;17.94;56.17
68654;BME280;55636;51.108;13.622;2023-08-24T02:53:46;100595.72;;;17.94;56.33
68654;BME280;55636;51.108;13.622;2023-08-24T02:54:48;100593.25;;;17.93;56.64
68654;BME280;55636;51.108;13.622;2023-08-24T02:55:51;100590.75;;;17.91;56.57
68654;BME280;55636;51.108;13.622;2023-08-24T02:56:53;100587.16;;;17.91;56.37
68654;BME280;55636;51.108;13.622;2023-08-24T02:57:56;100588.28;;;17.90;56.34
68654;BME280;55636;51.108;13.622;2023-08-24T02:58:58;100579.38;;;17.88;56.60
68654;BME280;55636;51.108;13.622;2023-08-24T03:00:01;100595.84;;;17.89;56.63
68654;BME280;55636;51.108;13.622;2023-08-24T03:01:06;100588.38;;;17.85;56.83
68654;BME280;55636;51.108;13.622;2023-08-24T03:02:13;100586.19;;;17.82;56.47
68654;BME280;55636;51.108;13.622;2023-08-24T03:03:16;100587.31;;;17.81;56.93
68654;BME280;55636;51.108;13.622;2023-08-24T03:04:19;100587.31;;;17.81;56.52
68654;BME280;55636;51.108;13.622;2023-08-24T03:05:22;100583.69;;;17.80;56.65
68654;BME280;55636;51.108;13.622;2023-08-24T03:06:24;100589.56;;;17.78;56.69
68654;BME280;55636;51.108;13.622;2023-08-24T03:07:27;100590.69;;;17.77;56.92
68654;BME280;55636;51.108;13.622;2023-08-24T03:08:31;100587.91;;;17.77;56.70
68654;BME280;55636;51.108;13.622;2023-08-24T03:09:36;100594.34;;;17.78;56.89
68654;BME280;55636;51.108;13.622;2023-08-24T03:10:38;100597.44;;;17.76;56.68
68654;BME280;55636;51.108;13.622;2023-08-24T03:11:41;100599.38;;;17.76;56.97
68654;BME280;55636;51.108;13.622;2023-08-24T03:12:45;100588.84;;;17.73;56.89
68654;BME280;55636;51.108;13.622;2023-08-24T03:13:48;100589.66;;;17.73;57.00
68654;BME280;55636;51.108;13.622;2023-08-24T03:14:53;100589.16;;;17.71;56.99
68654;BME280;55636;51.108;13.622;2023-08-24T03:16:03;100590.28;;;17.70;56.97
68654;BME280;55636;51.108;13.622;2023-08-24T03:17:06;100596.69;;;17.71;56.91
68654;BME280;55636;51.108;13.622;2023-08-24T03:18:13;100588.59;;;17.69;56.81
68654;BME280;55636;51.108;13.622;2023-08-24T03:19:16;100590.88;;;17.67;56.96
68654;BME280;55636;51.108;13.622;2023-08-24T03:20:20;100586.44;;;17.66;57.10
68654;BME280;55636;51.108;13.622;2023-08-24T03:21:22;100582.78;;;17.66;57.24
68654;BME280;55636;51.108;13.622;2023-08-24T03:22:25;100584.22;;;17.63;56.99
68654;BME280;55636;51.108;13.622;2023-08-24T03:23:27;100587.00;;;17.63;57.32
68654;BME280;55636;51.108;13.622;2023-08-24T03:24:30;100582.88;;;17.60;57.08
68654;BME280;55636;51.108;13.622;2023-08-24T03:25:36;100583.72;;;17.61;57.34
68654;BME280;55636;51.108;13.622;2023-08-24T03:26:39;100580.38;;;17.59;57.02
68654;BME280;55636;51.108;13.622;2023-08-24T03:27:41;100585.97;;;17.59;57.02
68654;BME280;55636;51.108;13.622;2023-08-24T03:28:44;100583.47;;;17.57;57.02
68654;BME280;55636;51.108;13.622;2023-08-24T03:29:46;100580.69;;;17.57;57.17
68654;BME280;55636;51.108;13.622;2023-08-24T03:30:53;100579.88;;;17.57;57.16
68654;BME280;55636;51.108;13.622;2023-08-24T03:31:57;100582.13;;;17.55;57.53
68654;BME280;55636;51.108;13.622;2023-08-24T03:33:00;100581.59;;;17.53;57.39
68654;BME280;55636;51.108;13.622;2023-08-24T03:34:03;100581.88;;;17.51;57.55
68654;BME280;55636;51.108;13.622;2023-08-24T03:35:06;100579.41;;;17.50;57.54
68654;BME280;55636;51.108;13.622;2023-08-24T03:36:09;100586.94;;;17.49;57.22
68654;BME280;55636;51.108;13.622;2023-08-24T03:37:11;100580.81;;;17.47;57.53
68654;BME280;55636;51.108;13.622;2023-08-24T03:38:14;100585.56;;;17.46;57.29
68654;BME280;55636;51.108;13.622;2023-08-24T03:39:16;100585.88;;;17.45;57.24
68654;BME280;55636;51.108;13.622;2023-08-24T03:40:19;100583.09;;;17.45;57.59
68654;BME280;55636;51.108;13.622;2023-08-24T03:41:22;100587.00;;;17.44;57.51
68654;BME280;55636;51.108;13.622;2023-08-24T03:42:24;100583.38;;;17.43;57.61
68654;BME280;55636;51.108;13.622;2023-08-24T03:43:27;100587.31;;;17.42;57.56
68654;BME280;55636;51.108;13.622;2023-08-24T03:44:29;100585.66;;;17.41;57.46
68654;BME280;55636;51.108;13.622;2023-08-24T03:45:32;100588.44;;;17.41;57.55
68654;BME280;55636;51.108;13.622;2023-08-24T03:46:34;100581.19;;;17.40;57.77
68654;BME280;55636;51.108;13.622;2023-08-24T03:47:37;100583.16;;;17.40;57.42
68654;BME280;55636;51.108;13.622;2023-08-24T03:48:39;100578.72;;;17.39;57.43
68654;BME280;55636;51.108;13.622;2023-08-24T03:49:43;100585.09;;;17.39;57.73
68654;BME280;55636;51.108;13.622;2023-08-24T03:50:46;100583.44;;;17.38;57.80
68654;BME280;55636;51.108;13.622;2023-08-24T03:51:48;100588.22;;;17.38;57.47
68654;BME280;55636;51.108;13.622;2023-08-24T03:52:51;100585.41;;;17.38;57.47
68654;BME280;55636;51.108;13.622;2023-08-24T03:53:56;100585.72;;;17.36;57.83
68654;BME280;55636;51.108;13.622;2023-08-24T03:54:59;100582.38;;;17.34;57.55
68654;BME280;55636;51.108;13.622;2023-08-24T03:56:01;100586.31;;;17.33;57.82
68654;BME280;55636;51.108;13.622;2023-08-24T03:57:04;100587.47;;;17.32;57.61
68654;BME280;55636;51.108;13.622;2023-08-24T03:58:07;100593.88;;;17.33;58.01
68654;BME280;55636;51.108;13.622;2023-08-24T03:59:09;100584.66;;;17.32;57.64
68654;BME280;55636;51.108;13.622;2023-08-24T04:00:12;100588.59;;;17.31;57.70
68654;BME280;55636;51.108;13.622;2023-08-24T04:01:16;100586.91;;;17.30;57.97
68654;BME280;55636;51.108;13.622;2023-08-24T04:02:18;100587.53;;;17.27;58.07
68654;BME280;55636;51.108;13.622;2023-08-24T04:03:21;100584.75;;;17.27;58.11
68654;BME280;55636;51.108;13.622;2023-08-24T04:04:24;100581.94;;;17.27;57.92
68654;BME280;55636;51.108;13.622;2023-08-24T04:05:26;100582.22;;;17.25;57.97
68654;BME280;55636;51.108;13.622;2023-08-24T04:06:28;100582.22;;;17.25;58.03
68654;BME280;55636;51.108;13.622;2023-08-24T04:07:31;100580.28;;;17.26;57.71
68654;BME280;55636;51.108;13.622;2023-08-24T04:08:35;100579.44;;;17.25;57.92
68654;BME280;55636;51.108;13.622;2023-08-24T04:09:37;100575.00;;;17.24;58.05
68654;BME280;55636;51.108;13.622;2023-08-24T04:10:39;100586.16;;;17.24;58.02
68654;BME280;55636;51.108;13.622;2023-08-24T04:11:42;100582.53;;;17.24;57.82
68654;BME280;55636;51.108;13.622;2023-08-24T04:12:44;100575.59;;;17.21;58.18
68654;BME280;55636;51.108;13.622;2023-08-24T04:13:47;100575.59;;;17.21;58.07
68654;BME280;55636;51.108;13.622;2023-08-24T04:14:49;100579.22;;;17.22;58.20
68654;BME280;55636;51.108;13.622;2023-08-24T04:15:52;100576.19;;;17.18;58.04
68654;BME280;55636;51.108;13.622;2023-08-24T04:16:54;100573.41;;;17.18;58.00
68654;BME280;55636;51.108;13.622;2023-08-24T04:17:58;100576.50;;;17.17;58.03
68654;BME280;55636;51.108;13.622;2023-08-24T04:19:00;100574.53;;;17.17;58.10
68654;BME280;55636;51.108;13.622;2023-08-24T04:20:03;100579.59;;;17.15;58.02
68654;BME280;55636;51.108;13.622;2023-08-24T04:21:08;100584.34;;;17.15;58.07
68654;BME280;55636;51.108;13.622;2023-08-24T04:22:11;100581.03;;;17.12;58.36
68654;BME280;55636;51.108;13.622;2023-08-24T04:23:13;100577.09;;;17.13;58.39
68654;BME280;55636;51.108;13.622;2023-08-24T04:24:16;100575.44;;;17.12;58.43
68654;BME280;55636;51.108;13.622;2023-08-24T04:25:18;100572.13;;;17.10;58.10
68654;BME280;55636;51.108;13.622;2023-08-24T04:26:20;100578.50;;;17.11;58.07
68654;BME280;55636;51.108;13.622;2023-08-24T04:27:23;100578.00;;;17.09;58.29
68654;BME280;55636;51.108;13.622;2023-08-24T04:28:25;100581.31;;;17.11;58.25
68654;BME280;55636;51.108;13.622;2023-08-24T04:29:28;100584.09;;;17.11;58.30
68654;BME280;55636;51.108;13.622;2023-08-24T04:30:30;100579.13;;;17.08;58.10
68654;BME280;55636;51.108;13.622;2023-08-24T04:31:33;100587.50;;;17.08;58.34
68654;BME280;55636;51.108;13.622;2023-08-24T04:32:35;100579.13;;;17.08;58.22
68654;BME280;55636;51.108;13.622;2023-08-24T04:33:37;100582.72;;;17.08;58.39
68654;BME280;55636;51.108;13.622;2023-08-24T04:34:40;100584.41;;;17.09;58.34
68654;BME280;55636;51.108;13.622;2023-08-24T04:35:42;100586.38;;;17.09;57.94
68654;BME280;55636;51.108;13.622;2023-08-24T04:36:44;100597.00;;;17.07;58.07
68654;BME280;55636;51.108;13.622;2023-08-24T04:37:47;100590.59;;;17.06;58.31
68654;BME280;55636;51.108;13.622;2023-08-24T04:38:50;100594.19;;;17.07;58.30
68654;BME280;55636;51.108;13.622;2023-08-24T04:39:52;100594.19;;;17.07;58.06
68654;BME280;55636;51.108;13.622;2023-08-24T04:40:55;100591.72;;;17.05;58.31
68654;BME280;55636;51.108;13.622;2023-08-24T04:41:58;100593.69;;;17.05;58.49
68654;BME280;55636;51.108;13.622;2023-08-24T04:43:00;100596.47;;;17.05;58.15
68654;BME280;55636;51.108;13.622;2023-08-24T04:44:03;100585.31;;;17.05;58.06
68654;BME280;55636;51.108;13.622;2023-08-24T04:45:06;100593.38;;;17.06;58.10
68654;BME280;55636;51.108;13.622;2023-08-24T04:46:08;100590.03;;;17.04;58.28
68654;BME280;55636;51.108;13.622;2023-08-24T04:47:11;100592.25;;;17.07;58.36
68654;BME280;55636;51.108;13.622;2023-08-24T04:48:14;100587.81;;;17.06;58.21
68654;BME280;55636;51.108;13.622;2023-08-24T04:49:17;100593.91;;;17.08;58.20
68654;BME280;55636;51.108;13.622;2023-08-24T04:50:19;100589.16;;;17.09;58.16
68654;BME280;55636;51.108;13.622;2023-08-24T04:51:21;100594.75;;;17.09;58.26
68654;BME280;55636;51.108;13.622;2023-08-24T04:52:24;100596.41;;;17.10;58.35
68654;BME280;55636;51.108;13.622;2023-08-24T04:53:26;100586.38;;;17.09;58.69
68654;BME280;55636;51.108;13.622;2023-08-24T04:54:29;100592.78;;;17.09;58.25
68654;BME280;55636;51.108;13.622;2023-08-24T04:55:31;100586.63;;;17.12;58.66
68654;BME280;55636;51.108;13.622;2023-08-24T04:56:33;100587.13;;;17.15;58.53
68654;BME280;55636;51.108;13.622;2023-08-24T04:57:36;100585.19;;;17.15;58.42
68654;BME280;55636;51.108;13.622;2023-08-24T04:58:39;100593.75;;;17.19;58.58
68654;BME280;55636;51.108;13.622;2023-08-24T04:59:41;100596.28;;;17.20;58.62
68654;BME280;55636;51.108;13.622;2023-08-24T05:00:44;100585.63;;;17.22;58.35
68654;BME280;55636;51.108;13.622;2023-08-24T05:01:47;100590.59;;;17.25;58.26
68654;BME280;55636;51.108;13.622;2023-08-24T05:02:49;100591.69;;;17.29;58.50
68654;BME280;55636;51.108;13.622;2023-08-24T05:03:52;100595.00;;;17.32;58.26
68654;BME280;55636;51.108;13.622;2023-08-24T05:04:55;100592.44;;;17.35;58.45
68654;BME280;55636;51.108;13.622;2023-08-24T05:05:57;100603.84;;;17.39;58.49
68654;BME280;55636;51.108;13.622;2023-08-24T05:07:00;100589.25;;;17.42;58.40
68654;BME280;55636;51.108;13.622;2023-08-24T05:08:04;100588.38;;;17.46;58.05
68654;BME280;55636;51.108;13.622;2023-08-24T05:09:10;100586.66;;;17.51;58.12
68654;BME280;55636;51.108;13.622;2023-08-24T05:10:12;100596.09;;;17.55;58.20
68654;BME280;55636;51.108;13.622;2023-08-24T05:11:21;100587.09;;;17.58;58.11
68654;BME280;55636;51.108;13.622;2023-08-24T05:12:23;100587.63;;;17.60;58.09
68654;BME280;55636;51.108;13.622;2023-08-24T05:13:26;100593.16;;;17.65;57.95
68654;BME280;55636;51.108;13.622;2023-08-24T05:14:28;100591.09;;;17.71;57.64
68654;BME280;55636;51.108;13.622;2023-08-24T05:15:31;100591.00;;;17.76;57.40
68654;BME280;55636;51.108;13.622;2023-08-24T05:16:33;100590.13;;;17.81;57.62
68654;BME280;55636;51.108;13.622;2023-08-24T05:17:36;100592.81;;;17.86;57.58
68654;BME280;55636;51.108;13.622;2023-08-24T05:18:39;100596.34;;;17.91;57.34
68654;BME280;55636;51.108;13.622;2023-08-24T05:19:42;100591.00;;;17.95;57.09
68654;BME280;55636;51.108;13.622;2023-08-24T05:20:44;100592.25;;;18.03;56.77
68654;BME280;55636;51.108;13.622;2023-08-24T05:21:47;100596.09;;;18.07;56.91
68654;BME280;55636;51.108;13.622;2023-08-24T05:22:49;100589.59;;;18.11;57.06
68654;BME280;55636;51.108;13.622;2023-08-24T05:23:51;100590.03;;;18.19;56.80
68654;BME280;55636;51.108;13.622;2023-08-24T05:24:54;100592.41;;;18.25;56.82
68654;BME280;55636;51.108;13.622;2023-08-24T05:25:57;100590.06;;;18.33;56.88
68654;BME280;55636;51.108;13.622;2023-08-24T05:27:00;100581.31;;;18.39;56.59
68654;BME280;55636;51.108;13.622;2023-08-24T05:28:02;100584.00;;;18.44;56.22
68654;BME280;55636;51.108;13.622;2023-08-24T05:29:05;100591.97;;;18.51;55.96
68654;BME280;55636;51.108;13.622;2023-08-24T05:30:08;100596.03;;;18.59;55.66
68654;BME280;55636;51.108;13.622;2023-08-24T05:31:11;100593.97;;;18.65;55.43
68654;BME280;55636;51.108;13.622;2023-08-24T05:32:13;100593.03;;;18.69;55.26